Time;durP1;ratioP1;P1;durP2;ratioP2;P2;SDS_P1;SDS_P2;PMS_P1;PMS_P2;Temp;Humidity;BMP_temperature;BMP_pressure;BME280_temperature;BME280_humidity;BME280_pressure;Samples;Min_cycle;Max_cycle;Signal;HPM_P1;HPM_P2
2021/07/09 00:00:58;;;;;;;2.72;1.80;;;18.00;99.90;;;;;;5032699;28;20029;-71
2021/07/09 00:03:24;;;;;;;2.78;1.60;;;18.10;99.90;;;;;;5032108;28;20068;-70
2021/07/09 00:05:50;;;;;;;3.10;2.17;;;18.10;99.90;;;;;;5033450;28;20100;-71
2021/07/09 00:08:16;;;;;;;4.93;2.28;;;18.00;99.90;;;;;;5032940;28;20478;-71
2021/07/09 00:10:42;;;;;;;6.95;2.50;;;18.00;99.90;;;;;;5033555;28;20026;-71
2021/07/09 00:13:07;;;;;;;4.53;2.22;;;18.10;99.90;;;;;;5033334;28;20030;-71
2021/07/09 00:15:37;;;;;;;5.38;2.65;;;18.00;99.90;;;;;;5032045;28;20108;-71
2021/07/09 00:18:03;;;;;;;6.90;2.58;;;18.10;99.90;;;;;;5015552;28;20075;-71
2021/07/09 00:20:30;;;;;;;3.50;2.10;;;18.10;99.90;;;;;;5034114;28;20102;-71
2021/07/09 00:22:56;;;;;;;5.93;2.35;;;18.10;99.90;;;;;;5052992;28;20055;-71
2021/07/09 00:25:22;;;;;;;4.93;2.40;;;18.20;99.90;;;;;;5051775;28;20033;-70
2021/07/09 00:27:49;;;;;;;4.72;2.00;;;18.20;99.90;;;;;;5053016;28;20037;-70
2021/07/09 00:30:15;;;;;;;4.25;2.42;;;18.20;99.90;;;;;;5051471;28;20090;-71
2021/07/09 00:32:41;;;;;;;4.40;2.38;;;18.20;99.90;;;;;;5052934;28;20024;-71
2021/07/09 00:35:08;;;;;;;5.78;2.50;;;18.10;99.90;;;;;;5068386;28;20041;-71
2021/07/09 00:37:34;;;;;;;4.97;2.20;;;18.10;99.90;;;;;;5052143;28;20032;-71
2021/07/09 00:40:01;;;;;;;4.45;2.20;;;18.10;99.90;;;;;;5051895;28;20508;-71
2021/07/09 00:42:27;;;;;;;4.97;2.15;;;18.10;99.90;;;;;;5052422;28;20029;-71
2021/07/09 00:44:52;;;;;;;3.70;2.25;;;18.00;99.90;;;;;;5052799;28;20355;-71
2021/07/09 00:47:18;;;;;;;3.70;2.00;;;18.00;99.90;;;;;;5051027;28;20067;-71
2021/07/09 00:49:45;;;;;;;3.92;2.10;;;18.00;99.90;;;;;;5052401;28;20120;-72
2021/07/09 00:52:10;;;;;;;5.47;1.80;;;18.00;99.90;;;;;;5036346;28;20034;-71
2021/07/09 00:54:36;;;;;;;3.55;1.85;;;18.00;99.90;;;;;;5031465;28;20375;-71
2021/07/09 00:57:02;;;;;;;6.32;2.00;;;18.00;99.90;;;;;;5032407;28;20033;-71
2021/07/09 00:59:28;;;;;;;3.50;2.00;;;17.90;99.90;;;;;;5032638;28;20501;-71
2021/07/09 01:01:56;;;;;;;6.20;2.20;;;18.00;99.90;;;;;;5031181;28;20037;-71
2021/07/09 01:04:21;;;;;;;6.00;1.90;;;17.90;99.90;;;;;;5032201;28;20068;-71
2021/07/09 01:06:48;;;;;;;5.30;1.92;;;18.00;99.90;;;;;;5032001;28;20089;-71
2021/07/09 01:09:14;;;;;;;3.03;2.00;;;18.00;99.90;;;;;;5032142;28;20060;-71
2021/07/09 01:11:42;;;;;;;5.88;1.95;;;18.00;99.90;;;;;;5030725;28;20029;-71
2021/07/09 01:14:08;;;;;;;5.93;2.00;;;18.00;99.90;;;;;;5031555;28;20033;-71
2021/07/09 01:16:35;;;;;;;4.07;2.00;;;18.00;99.90;;;;;;5030827;28;20033;-72
2021/07/09 01:19:05;;;;;;;3.50;1.92;;;18.00;99.90;;;;;;5031016;28;20482;-71
2021/07/09 01:21:30;;;;;;;7.75;2.35;;;18.10;99.90;;;;;;5039964;28;20549;-71
2021/07/09 01:24:04;;;;;;;6.03;2.05;;;18.00;99.90;;;;;;5052422;28;20116;-71
2021/07/09 01:26:30;;;;;;;4.78;2.15;;;18.00;99.90;;;;;;5051793;28;20036;-71
2021/07/09 01:28:56;;;;;;;3.17;1.90;;;18.10;99.90;;;;;;5052187;28;20033;-71
2021/07/09 01:31:22;;;;;;;3.75;1.83;;;18.10;99.90;;;;;;5051588;28;20037;-71
2021/07/09 01:33:48;;;;;;;7.28;2.50;;;18.10;99.90;;;;;;5050694;28;20040;-71
2021/07/09 01:36:16;;;;;;;7.60;2.30;;;18.00;99.90;;;;;;5051829;28;20063;-72
2021/07/09 01:38:42;;;;;;;3.67;2.17;;;18.00;99.90;;;;;;5050950;28;20029;-71
2021/07/09 01:41:07;;;;;;;4.80;2.22;;;18.00;99.90;;;;;;5050776;28;20029;-71
2021/07/09 01:43:33;;;;;;;4.55;1.88;;;18.00;99.90;;;;;;5052014;28;20025;-71
2021/07/09 01:46:00;;;;;;;7.13;2.55;;;18.00;99.90;;;;;;5051706;28;20029;-71
2021/07/09 01:48:25;;;;;;;3.53;2.13;;;18.00;99.90;;;;;;5051769;28;20108;-71
2021/07/09 01:50:51;;;;;;;5.35;1.95;;;18.00;99.90;;;;;;5047882;28;20127;-71
2021/07/09 01:53:18;;;;;;;3.85;1.88;;;18.00;99.90;;;;;;5034516;28;20030;-71
2021/07/09 01:55:43;;;;;;;4.50;2.40;;;18.00;99.90;;;;;;5032143;28;20124;-71
2021/07/09 01:58:09;;;;;;;4.68;2.25;;;18.00;99.90;;;;;;5029941;28;20124;-72
2021/07/09 02:00:36;;;;;;;3.50;2.00;;;18.00;99.90;;;;;;5030490;28;20105;-71
2021/07/09 02:03:02;;;;;;;5.05;2.40;;;18.00;99.90;;;;;;5030675;28;20033;-72
2021/07/09 02:05:28;;;;;;;3.45;2.10;;;17.90;99.90;;;;;;5030308;28;20029;-71
2021/07/09 02:07:56;;;;;;;5.68;2.38;;;18.00;99.90;;;;;;5031492;28;20057;-71
2021/07/09 02:10:28;;;;;;;4.13;2.03;;;18.00;99.90;;;;;;5030225;28;20185;-71
2021/07/09 02:12:56;;;;;;;4.15;2.08;;;18.00;99.90;;;;;;5031096;28;20040;-71
2021/07/09 02:15:30;;;;;;;2.85;1.60;;;18.00;99.90;;;;;;5031551;28;20030;-70
2021/07/09 02:17:56;;;;;;;4.85;2.08;;;18.00;99.90;;;;;;5047035;28;20033;-70
2021/07/09 02:20:25;;;;;;;4.45;1.90;;;18.00;99.90;;;;;;5031525;28;20067;-71
2021/07/09 02:22:55;;;;;;;4.18;2.10;;;18.00;99.90;;;;;;5032294;28;20132;-71
2021/07/09 02:25:21;;;;;;;3.58;2.08;;;18.00;99.90;;;;;;5035472;28;20018;-71
2021/07/09 02:27:51;;;;;;;4.78;1.80;;;17.90;99.90;;;;;;5033957;28;20032;-71
2021/07/09 02:30:18;;;;;;;10.63;2.20;;;18.00;99.90;;;;;;5035558;28;20478;-71
2021/07/09 02:32:46;;;;;;;4.78;1.90;;;18.00;99.90;;;;;;5035213;28;20316;-71
2021/07/09 02:35:20;;;;;;;3.03;2.08;;;18.00;99.90;;;;;;5033705;28;20033;-71
2021/07/09 02:37:47;;;;;;;2.90;2.10;;;18.00;99.90;;;;;;5035173;28;20482;-71
2021/07/09 02:40:17;;;;;;;4.72;1.95;;;18.00;99.90;;;;;;5034973;28;20470;-71
2021/07/09 02:42:49;;;;;;;7.60;2.15;;;18.00;99.90;;;;;;5034852;28;20029;-72
2021/07/09 02:45:16;;;;;;;5.85;1.90;;;18.00;99.90;;;;;;5033809;28;20029;-71
2021/07/09 02:47:43;;;;;;;8.82;2.45;;;18.00;99.90;;;;;;5033434;28;20033;-71
2021/07/09 02:50:16;;;;;;;3.97;2.15;;;18.00;99.90;;;;;;5033619;28;20032;-71
2021/07/09 02:52:42;;;;;;;8.02;2.10;;;18.00;99.90;;;;;;5034684;28;20034;-71
2021/07/09 02:55:10;;;;;;;3.55;1.92;;;18.00;99.90;;;;;;5033388;28;20128;-71
2021/07/09 02:57:36;;;;;;;7.53;2.10;;;18.00;99.90;;;;;;5034839;28;20052;-71
2021/07/09 03:00:12;;;;;;;5.32;2.00;;;18.00;99.90;;;;;;5033688;28;20481;-71
2021/07/09 03:02:38;;;;;;;5.25;2.33;;;17.90;99.90;;;;;;5034430;28;20044;-70
2021/07/09 03:05:06;;;;;;;7.45;2.08;;;18.00;99.90;;;;;;5033390;28;20112;-72
2021/07/09 03:07:32;;;;;;;4.20;2.08;;;18.00;99.90;;;;;;5034290;28;20042;-72
2021/07/09 03:09:58;;;;;;;2.85;1.70;;;17.90;99.90;;;;;;5033253;28;20402;-70
2021/07/09 03:12:23;;;;;;;2.95;1.58;;;18.00;99.90;;;;;;5034602;28;20026;-70
2021/07/09 03:14:49;;;;;;;5.22;2.00;;;17.90;99.90;;;;;;5033308;28;20055;-70
2021/07/09 03:17:15;;;;;;;4.35;1.80;;;18.00;99.90;;;;;;5033149;28;20079;-70
2021/07/09 03:19:41;;;;;;;3.95;2.00;;;18.00;99.90;;;;;;5032862;28;20437;-71
2021/07/09 03:22:07;;;;;;;3.40;2.10;;;17.90;99.90;;;;;;5034512;28;20040;-70
2021/07/09 03:24:32;;;;;;;4.85;1.80;;;17.90;99.90;;;;;;5033954;28;20041;-70
2021/07/09 03:26:58;;;;;;;5.40;2.20;;;18.00;99.90;;;;;;5034416;28;20107;-70
2021/07/09 03:29:24;;;;;;;4.03;2.10;;;18.00;99.90;;;;;;5033693;28;20034;-71
2021/07/09 03:31:50;;;;;;;4.00;1.90;;;18.00;99.90;;;;;;5034070;28;20059;-71
2021/07/09 03:34:16;;;;;;;3.58;2.05;;;18.00;99.90;;;;;;5032417;28;20120;-71
2021/07/09 03:36:45;;;;;;;3.63;1.98;;;18.00;99.90;;;;;;5033761;28;20433;-71
2021/07/09 03:39:12;;;;;;;3.35;2.08;;;17.90;99.90;;;;;;5032628;28;20038;-71
2021/07/09 03:41:39;;;;;;;3.75;2.00;;;17.90;99.90;;;;;;5033520;28;20033;-71
2021/07/09 03:44:07;;;;;;;4.70;2.30;;;17.90;99.90;;;;;;5034083;28;20375;-71
2021/07/09 03:46:34;;;;;;;6.35;2.00;;;17.90;99.90;;;;;;5032458;28;20025;-71
2021/07/09 03:49:01;;;;;;;4.72;2.25;;;17.90;99.90;;;;;;4999526;28;20048;-71
2021/07/09 03:51:26;;;;;;;3.13;1.77;;;17.90;99.90;;;;;;5035224;28;20122;-71
2021/07/09 03:53:54;;;;;;;6.22;2.00;;;17.80;99.90;;;;;;5033656;28;20089;-71
2021/07/09 03:56:29;;;;;;;4.35;2.45;;;17.80;99.90;;;;;;5032448;28;20428;-71
2021/07/09 03:58:57;;;;;;;5.03;2.17;;;17.90;99.90;;;;;;5032211;28;20033;-70
2021/07/09 04:01:24;;;;;;;5.80;2.25;;;17.90;99.90;;;;;;5033826;28;20086;-68
2021/07/09 04:03:50;;;;;;;3.65;2.20;;;17.90;99.90;;;;;;5033537;28;20072;-69
2021/07/09 04:06:16;;;;;;;3.17;1.98;;;18.00;99.90;;;;;;5031874;28;20096;-69
2021/07/09 04:08:42;;;;;;;4.82;2.00;;;18.00;99.90;;;;;;5031854;28;20025;-70
2021/07/09 04:11:08;;;;;;;3.55;2.08;;;18.00;99.90;;;;;;5033438;28;20025;-68
2021/07/09 04:13:34;;;;;;;5.18;1.77;;;18.00;99.90;;;;;;5033401;28;20033;-68
2021/07/09 04:16:00;;;;;;;4.30;2.63;;;18.00;99.90;;;;;;5033165;28;20441;-69
2021/07/09 04:18:26;;;;;;;5.82;2.90;;;17.90;99.90;;;;;;5033126;28;20037;-68
2021/07/09 04:20:51;;;;;;;4.00;2.55;;;17.90;99.90;;;;;;5031878;28;20583;-68
2021/07/09 04:23:17;;;;;;;3.85;2.75;;;18.00;99.90;;;;;;5048717;28;20064;-68
2021/07/09 04:25:43;;;;;;;4.80;3.00;;;17.90;99.90;;;;;;5031585;28;20036;-69
2021/07/09 04:28:09;;;;;;;6.20;3.13;;;17.90;99.90;;;;;;5033297;28;20060;-69
2021/07/09 04:30:35;;;;;;;5.85;3.13;;;17.90;99.90;;;;;;5033111;28;20418;-68
2021/07/09 04:33:00;;;;;;;8.73;3.90;;;17.80;99.90;;;;;;5033178;28;20114;-68
2021/07/09 04:35:26;;;;;;;5.85;3.70;;;17.80;99.90;;;;;;5032881;28;20076;-69
2021/07/09 04:37:52;;;;;;;7.60;3.83;;;17.80;99.90;;;;;;5033072;28;20049;-68
2021/07/09 04:40:18;;;;;;;7.38;3.30;;;17.70;99.90;;;;;;5048414;28;20033;-68
2021/07/09 04:42:44;;;;;;;8.23;3.65;;;17.60;99.90;;;;;;5052582;28;20119;-69
2021/07/09 04:45:10;;;;;;;6.15;3.95;;;17.70;99.90;;;;;;5050832;28;20029;-70
2021/07/09 04:47:36;;;;;;;5.43;3.80;;;17.60;99.90;;;;;;5052073;28;20036;-70
2021/07/09 04:50:04;;;;;;;6.50;3.60;;;17.70;99.90;;;;;;5052703;28;20032;-71
2021/07/09 04:52:29;;;;;;;5.50;3.83;;;17.70;99.90;;;;;;5052504;28;20025;-69
2021/07/09 04:54:55;;;;;;;5.75;3.67;;;17.70;99.90;;;;;;5052343;28;20032;-71
2021/07/09 04:57:21;;;;;;;5.80;3.70;;;17.70;99.90;;;;;;5052412;28;20040;-70
2021/07/09 04:59:47;;;;;;;6.75;3.80;;;17.70;99.90;;;;;;5052276;28;20052;-69
2021/07/09 05:02:13;;;;;;;9.18;4.43;;;17.70;99.90;;;;;;5052210;28;20029;-69
2021/07/09 05:04:39;;;;;;;5.63;3.45;;;17.60;99.90;;;;;;5052157;28;20029;-68
2021/07/09 05:07:05;;;;;;;7.65;4.22;;;17.60;99.90;;;;;;5052195;28;20040;-68
2021/07/09 05:09:31;;;;;;;11.25;5.13;;;17.50;99.90;;;;;;5041679;28;20040;-67
2021/07/09 05:11:57;;;;;;;8.55;5.47;;;17.50;99.90;;;;;;5031134;28;20055;-68
2021/07/09 05:14:27;;;;;;;7.60;5.25;;;17.60;99.90;;;;;;5031029;28;20021;-63
2021/07/09 05:16:54;;;;;;;8.30;5.13;;;17.60;99.90;;;;;;5032277;28;20055;-64
2021/07/09 05:19:20;;;;;;;9.10;5.13;;;17.60;99.90;;;;;;5014392;28;20446;-64
2021/07/09 05:21:46;;;;;;;9.98;5.25;;;17.60;99.90;;;;;;5031994;28;20052;-64
2021/07/09 05:24:13;;;;;;;12.32;5.55;;;17.60;99.90;;;;;;5032279;28;20021;-64
2021/07/09 05:26:42;;;;;;;6.82;4.60;;;17.50;99.90;;;;;;5032070;28;20041;-63
2021/07/09 05:29:09;;;;;;;7.75;4.90;;;17.60;99.90;;;;;;5032003;28;20033;-63
2021/07/09 05:31:36;;;;;;;10.65;5.18;;;17.70;99.90;;;;;;5031960;28;20036;-64
2021/07/09 05:34:03;;;;;;;7.97;4.68;;;17.80;99.90;;;;;;5031886;28;20037;-64
2021/07/09 05:36:29;;;;;;;7.95;4.22;;;17.80;99.90;;;;;;5032231;28;20037;-64
2021/07/09 05:38:55;;;;;;;8.45;4.30;;;17.70;99.90;;;;;;5037289;28;20083;-64
2021/07/09 05:41:21;;;;;;;8.75;4.57;;;17.70;99.90;;;;;;5051753;28;20037;-63
2021/07/09 05:43:47;;;;;;;7.88;3.97;;;17.70;99.90;;;;;;5051902;28;20025;-63
2021/07/09 05:46:13;;;;;;;10.50;4.55;;;17.70;99.90;;;;;;5067207;28;20029;-65
2021/07/09 05:48:38;;;;;;;7.97;4.85;;;17.70;99.90;;;;;;5051751;28;20043;-63
2021/07/09 05:51:04;;;;;;;7.63;4.68;;;17.70;99.90;;;;;;5050714;28;20025;-63
2021/07/09 05:53:31;;;;;;;9.23;4.00;;;17.70;99.90;;;;;;5039839;28;20400;-62
2021/07/09 05:55:58;;;;;;;8.60;4.55;;;17.70;99.90;;;;;;4994468;28;20034;-63
2021/07/09 05:58:24;;;;;;;10.05;4.00;;;17.70;99.90;;;;;;5015328;28;20048;-63
2021/07/09 06:00:50;;;;;;;6.40;4.15;;;17.60;99.90;;;;;;5024008;28;20020;-62
2021/07/09 06:03:16;;;;;;;8.40;4.70;;;17.70;99.90;;;;;;5035614;28;20042;-62
2021/07/09 06:05:41;;;;;;;6.47;4.35;;;17.70;99.90;;;;;;5035354;28;20025;-62
2021/07/09 06:08:09;;;;;;;12.07;4.90;;;17.70;99.90;;;;;;5035329;28;20053;-63
2021/07/09 06:10:36;;;;;;;10.95;5.65;;;17.60;99.90;;;;;;5034413;28;20033;-63
2021/07/09 06:13:05;;;;;;;10.85;6.50;;;17.50;99.90;;;;;;5034464;28;20026;-63
2021/07/09 06:15:32;;;;;;;12.00;7.20;;;17.50;99.90;;;;;;5035548;28;20032;-63
2021/07/09 06:17:58;;;;;;;8.45;4.80;;;17.40;99.90;;;;;;5035040;28;20034;-63
2021/07/09 06:20:24;;;;;;;10.00;5.32;;;17.50;99.90;;;;;;5035441;28;20128;-63
2021/07/09 06:22:49;;;;;;;8.82;4.75;;;17.50;99.90;;;;;;5033955;28;20109;-63
2021/07/09 06:25:16;;;;;;;10.05;4.65;;;17.60;99.90;;;;;;5035138;28;20113;-63
2021/07/09 06:27:43;;;;;;;9.48;5.25;;;17.70;99.90;;;;;;5017627;28;20128;-62
2021/07/09 06:30:11;;;;;;;6.45;4.75;;;17.70;99.90;;;;;;5035199;28;20037;-62
2021/07/09 06:32:37;;;;;;;8.90;5.00;;;17.60;99.90;;;;;;5034866;28;20061;-63
2021/07/09 06:35:09;;;;;;;9.75;4.93;;;17.70;99.90;;;;;;5034931;28;20386;-63
2021/07/09 06:37:36;;;;;;;10.23;5.13;;;17.70;99.90;;;;;;5035100;28;20075;-63
2021/07/09 06:40:05;;;;;;;9.75;5.22;;;17.70;99.90;;;;;;5048182;28;20025;-63
2021/07/09 06:42:30;;;;;;;8.00;5.18;;;17.90;99.90;;;;;;5054928;28;20049;-63
2021/07/09 06:44:56;;;;;;;10.43;5.10;;;18.00;99.90;;;;;;5054965;28;20117;-64
2021/07/09 06:47:22;;;;;;;10.73;5.68;;;18.20;99.90;;;;;;5051084;28;20033;-63
2021/07/09 06:49:47;;;;;;;8.45;5.82;;;18.20;99.90;;;;;;5018871;28;20030;-63
2021/07/09 06:52:13;;;;;;;13.48;6.25;;;18.20;99.90;;;;;;5013748;28;20483;-62
2021/07/09 06:54:39;;;;;;;13.77;7.30;;;18.20;99.90;;;;;;4997156;28;20379;-62
2021/07/09 06:57:05;;;;;;;16.90;10.55;;;18.20;99.90;;;;;;5015183;28;20037;-62
2021/07/09 06:59:31;;;;;;;8.23;5.45;;;18.30;99.90;;;;;;5015260;28;20049;-61
2021/07/09 07:01:57;;;;;;;8.73;5.38;;;18.40;99.90;;;;;;5030032;28;20526;-61
2021/07/09 07:04:23;;;;;;;9.60;6.32;;;18.40;99.90;;;;;;5013749;28;20114;-62
2021/07/09 07:06:51;;;;;;;8.52;5.40;;;18.50;99.90;;;;;;5014558;28;20160;-62
2021/07/09 07:09:16;;;;;;;8.32;5.65;;;18.60;99.90;;;;;;5045805;28;20040;-62
2021/07/09 07:11:43;;;;;;;11.27;5.63;;;18.60;99.90;;;;;;5054228;28;20062;-62
2021/07/09 07:14:08;;;;;;;9.00;5.03;;;18.50;99.90;;;;;;5054507;28;20029;-62
2021/07/09 07:16:34;;;;;;;10.63;6.05;;;18.70;99.90;;;;;;5045119;28;20092;-62
2021/07/09 07:19:00;;;;;;;10.05;4.93;;;18.80;99.90;;;;;;5014369;28;20072;-62
2021/07/09 07:21:26;;;;;;;8.63;4.78;;;18.80;99.90;;;;;;5014598;28;20057;-62
2021/07/09 07:23:51;;;;;;;8.52;4.95;;;18.90;99.90;;;;;;5014211;28;20045;-62
2021/07/09 07:26:17;;;;;;;8.18;5.30;;;18.70;99.90;;;;;;5014335;28;20022;-62
2021/07/09 07:28:43;;;;;;;13.40;5.45;;;18.90;99.90;;;;;;5014441;28;20041;-63
2021/07/09 07:31:10;;;;;;;8.70;5.80;;;18.90;99.90;;;;;;5014114;28;20070;-73
2021/07/09 07:33:38;;;;;;;8.88;5.88;;;18.90;99.90;;;;;;5012886;28;20445;-70
2021/07/09 07:36:04;;;;;;;12.10;6.15;;;18.80;99.90;;;;;;5014296;28;20145;-70
2021/07/09 07:38:30;;;;;;;7.90;5.25;;;18.80;99.90;;;;;;5012887;28;20030;-70
2021/07/09 07:40:55;;;;;;;10.02;5.45;;;18.80;99.90;;;;;;5012728;28;20380;-70
2021/07/09 07:43:21;;;;;;;11.30;6.18;;;18.80;99.90;;;;;;5014183;28;20030;-69
2021/07/09 07:45:47;;;;;;;8.90;4.95;;;18.70;99.90;;;;;;5013942;28;20148;-70
2021/07/09 07:48:13;;;;;;;9.23;5.95;;;18.70;99.90;;;;;;5012765;28;20041;-70
2021/07/09 07:50:40;;;;;;;7.63;5.47;;;18.70;99.90;;;;;;5012843;28;20030;-70
2021/07/09 07:53:06;;;;;;;8.88;5.30;;;18.80;99.90;;;;;;5014023;28;20026;-69
2021/07/09 07:55:31;;;;;;;11.88;6.57;;;18.80;99.90;;;;;;5013775;28;20109;-71
2021/07/09 07:57:57;;;;;;;12.57;6.63;;;18.70;99.90;;;;;;5013860;28;20026;-71
2021/07/09 08:00:23;;;;;;;11.10;6.70;;;18.80;99.90;;;;;;5014019;28;20045;-71
2021/07/09 08:02:49;;;;;;;10.50;6.43;;;18.80;99.90;;;;;;5013867;28;20038;-71
2021/07/09 08:05:15;;;;;;;11.05;6.13;;;18.80;99.90;;;;;;5013816;28;20026;-69
2021/07/09 08:07:42;;;;;;;10.75;6.22;;;18.80;99.90;;;;;;5028777;28;20049;-70
2021/07/09 08:10:10;;;;;;;11.45;5.85;;;18.80;99.90;;;;;;5032134;28;20525;-75
2021/07/09 08:12:35;;;;;;;13.63;6.20;;;19.00;99.90;;;;;;5031978;28;20390;-72
2021/07/09 08:15:03;;;;;;;10.65;5.75;;;18.90;99.90;;;;;;5032945;28;20040;-68
2021/07/09 08:17:28;;;;;;;13.57;7.15;;;19.00;99.90;;;;;;5033258;28;20128;-73
2021/07/09 08:19:54;;;;;;;10.48;6.82;;;19.00;99.90;;;;;;5033216;28;20124;-69
2021/07/09 08:22:20;;;;;;;10.27;6.75;;;19.10;99.90;;;;;;5032858;28;20397;-69
2021/07/09 08:24:46;;;;;;;11.32;6.90;;;19.20;99.90;;;;;;5031713;28;20037;-66
2021/07/09 08:27:11;;;;;;;11.68;7.28;;;19.40;99.90;;;;;;5032756;28;20467;-70
2021/07/09 08:29:37;;;;;;;14.38;8.32;;;19.50;99.90;;;;;;5033154;28;20045;-70
2021/07/09 08:32:03;;;;;;;12.75;8.18;;;19.60;99.90;;;;;;5032630;28;20034;-70
2021/07/09 08:34:29;;;;;;;11.38;7.30;;;19.70;99.90;;;;;;5031823;28;20034;-70
2021/07/09 08:36:55;;;;;;;13.60;7.32;;;19.70;99.90;;;;;;5031696;28;20079;-72
2021/07/09 08:39:21;;;;;;;12.80;7.43;;;19.80;99.90;;;;;;5032525;28;20044;-70
2021/07/09 08:41:48;;;;;;;11.77;7.15;;;20.00;99.90;;;;;;5032146;28;20124;-68
2021/07/09 08:44:15;;;;;;;9.70;6.90;;;20.00;99.90;;;;;;5032821;28;20450;-69
2021/07/09 08:46:42;;;;;;;12.02;7.50;;;20.10;99.90;;;;;;5032546;28;20041;-71
2021/07/09 08:49:12;;;;;;;11.63;7.72;;;20.20;99.90;;;;;;5032859;28;20485;-70
2021/07/09 08:51:38;;;;;;;11.13;7.65;;;20.20;99.90;;;;;;5047902;28;20466;-68
2021/07/09 08:54:16;;;;;;;11.15;7.07;;;20.30;99.90;;;;;;5050855;28;20163;-68
2021/07/09 08:56:45;;;;;;;11.07;7.65;;;20.40;99.90;;;;;;5051027;28;20078;-69
2021/07/09 08:59:11;;;;;;;9.98;6.70;;;20.30;99.90;;;;;;5051313;28;20087;-69
2021/07/09 09:01:56;;;;;;;12.18;8.02;;;20.50;99.90;;;;;;5051010;28;20080;-69
2021/07/09 09:04:31;;;;;;;17.98;8.45;;;20.50;99.90;;;;;;5051190;28;20041;-68
2021/07/09 09:07:09;;;;;;;19.08;7.90;;;20.70;99.90;;;;;;5050927;28;20045;-69
2021/07/09 09:09:38;;;;;;;13.98;8.85;;;21.10;99.90;;;;;;5050653;28;20112;-68
2021/07/09 09:12:15;;;;;;;12.32;8.40;;;21.30;99.90;;;;;;5050471;28;20056;-68
2021/07/09 09:14:51;;;;;;;14.30;8.57;;;21.30;99.90;;;;;;5052294;28;20037;-68
2021/07/09 09:17:29;;;;;;;11.70;8.55;;;21.40;99.90;;;;;;5050906;28;20025;-72
2021/07/09 09:20:15;;;;;;;17.98;9.27;;;21.60;99.90;;;;;;5051407;28;20607;-69
2021/07/09 09:22:50;;;;;;;12.50;8.30;;;21.70;99.90;;;;;;5051922;28;20072;-70
2021/07/09 09:25:23;;;;;;;14.10;9.52;;;21.80;99.90;;;;;;5051677;28;20420;-69
2021/07/09 09:28:03;;;;;;;15.25;8.80;;;22.00;99.90;;;;;;5051552;28;20044;-69
2021/07/09 09:30:30;;;;;;;12.18;8.65;;;21.90;99.90;;;;;;5051742;28;20078;-69
2021/07/09 09:32:59;;;;;;;13.05;9.82;;;21.90;99.90;;;;;;5050104;28;20033;-70
2021/07/09 09:35:28;;;;;;;17.67;9.88;;;21.80;99.90;;;;;;5051771;28;20033;-69
2021/07/09 09:38:02;;;;;;;18.15;10.15;;;21.60;99.90;;;;;;5050753;28;20029;-69
2021/07/09 09:40:29;;;;;;;16.48;10.30;;;21.40;99.90;;;;;;5051664;28;20037;-70
2021/07/09 09:42:55;;;;;;;14.98;9.95;;;21.30;99.90;;;;;;5050661;28;20029;-71
2021/07/09 09:45:25;;;;;;;14.98;10.63;;;21.20;99.90;;;;;;5050476;28;20036;-69
2021/07/09 09:47:51;;;;;;;16.63;11.48;;;21.20;99.90;;;;;;5051589;28;20033;-69
2021/07/09 09:50:20;;;;;;;16.40;10.90;;;21.40;99.90;;;;;;5050477;28;20041;-71
2021/07/09 09:52:50;;;;;;;17.27;10.13;;;21.50;99.90;;;;;;5029494;28;20033;-71
2021/07/09 09:55:33;;;;;;;17.35;11.15;;;21.50;99.90;;;;;;4994800;28;20398;-72
2021/07/09 09:58:19;;;;;;;18.02;12.43;;;21.60;99.90;;;;;;5012239;28;20052;-72
2021/07/09 10:00:48;;;;;;;21.05;10.15;;;21.70;99.90;;;;;;5012304;28;20033;-71
2021/07/09 10:03:13;;;;;;;16.38;11.13;;;21.70;99.90;;;;;;5011785;28;20049;-72
2021/07/09 10:05:46;;;;;;;19.48;11.57;;;21.60;99.90;;;;;;5012236;28;20063;-72
2021/07/09 10:08:21;;;;;;;18.25;10.52;;;21.70;99.90;;;;;;5010326;28;20391;-71
2021/07/09 10:10:48;;;;;;;23.40;10.32;;;22.10;99.90;;;;;;5010844;28;20398;-71
2021/07/09 10:13:24;;;;;;;18.90;11.10;;;22.50;99.90;;;;;;5012020;28;20079;-71
2021/07/09 10:15:51;;;;;;;16.15;10.50;;;22.60;99.90;;;;;;5024769;28;20526;-71
2021/07/09 10:18:26;;;;;;;16.27;10.98;;;22.70;99.90;;;;;;5031383;28;20044;-71
2021/07/09 10:20:51;;;;;;;16.25;10.10;;;22.60;99.90;;;;;;5013579;28;20045;-71
2021/07/09 10:23:21;;;;;;;15.10;10.23;;;22.60;99.90;;;;;;5031567;28;20041;-72
2021/07/09 10:25:51;;;;;;;16.05;11.75;;;22.50;99.90;;;;;;5030613;28;20030;-71
2021/07/09 10:28:21;;;;;;;;;;;22.40;99.90;;;;;;5030651;28;20029;-71
2021/07/09 10:30:48;;;;;;;16.17;9.68;;;22.50;99.90;;;;;;5031194;28;19917;-72
2021/07/09 10:33:35;;;;;;;16.48;10.48;;;22.70;99.90;;;;;;5030971;28;20030;-72
2021/07/09 10:36:29;;;;;;;13.10;8.77;;;23.00;99.90;;;;;;5030047;28;20044;-72
2021/07/09 10:38:56;;;;;;;14.13;9.45;;;23.30;99.90;;;;;;5031103;28;20045;-73
2021/07/09 10:41:23;;;;;;;15.05;9.95;;;23.50;99.90;;;;;;5031318;28;20034;-70
2021/07/09 10:44:15;;;;;;;13.85;10.38;;;23.60;99.90;;;;;;5030457;28;20036;-72
2021/07/09 10:46:42;;;;;;;14.50;10.60;;;23.80;99.90;;;;;;5054840;28;20025;-72
2021/07/09 10:49:09;;;;;;;17.52;9.75;;;23.50;99.90;;;;;;5052838;28;20029;-73
2021/07/09 10:51:51;;;;;;;16.48;9.90;;;23.90;99.90;;;;;;5053389;28;20056;-73
2021/07/09 10:54:26;;;;;;;13.20;9.88;;;24.00;99.90;;;;;;5049996;28;20033;-73
2021/07/09 10:57:21;;;;;;;12.35;9.13;;;24.00;99.90;;;;;;5054520;28;20068;-72
2021/07/09 11:00:24;;;;;;;14.68;9.77;;;24.30;99.90;;;;;;5054683;28;20075;-72
2021/07/09 11:03:07;;;;;;;12.35;9.50;;;24.60;99.90;;;;;;5053216;28;20036;-71
2021/07/09 11:05:51;;;;;;;13.02;8.88;;;24.40;99.90;;;;;;5054609;28;20037;-71
2021/07/09 11:08:31;;;;;;;13.27;7.93;;;24.30;99.90;;;;;;5038297;28;20095;-71
2021/07/09 11:11:09;;;;;;;;;;;24.10;99.90;;;;;;5024662;28;20045;-72
2021/07/09 11:13:40;;;;;;;17.05;10.00;;;23.60;99.90;;;;;;5024926;28;19920;-73
2021/07/09 11:16:24;;;;;;;12.23;7.95;;;23.50;99.90;;;;;;5046837;28;20024;-72
2021/07/09 11:19:07;;;;;;;11.20;8.05;;;23.60;99.90;;;;;;5054189;28;20037;-72
2021/07/09 11:21:33;;;;;;;13.15;8.38;;;23.80;99.90;;;;;;5053041;28;20524;-72
2021/07/09 11:24:20;;;;;;;11.95;7.70;;;23.70;99.90;;;;;;5054030;28;20047;-71
2021/07/09 11:27:02;;;;;;;13.70;9.38;;;23.40;99.90;;;;;;5054294;28;20029;-72
2021/07/09 11:29:47;;;;;;;13.50;9.27;;;23.20;99.90;;;;;;5053057;28;20033;-72
2021/07/09 11:32:20;;;;;;;13.93;9.13;;;23.30;99.90;;;;;;5053857;28;20048;-72
2021/07/09 11:34:52;;;;;;;12.10;8.55;;;23.20;99.90;;;;;;5052553;28;20039;-73
2021/07/09 11:37:23;;;;;;;13.75;9.30;;;23.30;99.90;;;;;;5053475;28;20450;-72
2021/07/09 11:40:16;;;;;;;16.85;9.02;;;23.60;99.90;;;;;;5053772;28;20083;-72
2021/07/09 11:42:42;;;;;;;13.70;8.68;;;23.70;99.90;;;;;;5053498;28;20129;-72
2021/07/09 11:45:11;;;;;;;12.98;8.05;;;23.60;99.90;;;;;;5045066;28;20037;-73
2021/07/09 11:47:42;;;;;;;11.85;6.95;;;23.70;99.90;;;;;;5032621;28;20079;-72
2021/07/09 11:50:21;;;;;;;9.35;6.00;;;24.30;99.90;;;;;;5031691;28;20242;-72
2021/07/09 11:52:53;;;;;;;9.57;5.97;;;24.40;99.90;;;;;;5033787;28;20037;-72
2021/07/09 11:55:30;;;;;;;10.65;5.95;;;24.50;99.90;;;;;;5033261;28;20048;-71
2021/07/09 11:58:05;;;;;;;11.05;6.25;;;24.50;99.90;;;;;;5032194;28;20048;-73
2021/07/09 12:00:37;;;;;;;11.07;6.97;;;24.80;99.90;;;;;;5032393;28;20028;-72
2021/07/09 12:03:03;;;;;;;10.85;7.30;;;24.90;99.90;;;;;;5032230;28;20168;-72
2021/07/09 12:05:32;;;;;;;7.50;5.97;;;25.20;99.90;;;;;;5033406;28;20115;-72
2021/07/09 12:07:59;;;;;;;8.60;6.13;;;25.10;99.90;;;;;;5015642;28;20046;-73
2021/07/09 12:10:30;;;;;;;10.80;6.85;;;25.10;99.90;;;;;;5033449;28;20033;-72
2021/07/09 12:13:05;;;;;;;8.80;6.55;;;25.40;99.60;;;;;;5033132;28;20478;-73
2021/07/09 12:15:36;;;;;;;11.07;7.55;;;25.40;99.30;;;;;;5043563;28;20122;-73
2021/07/09 12:18:03;;;;;;;11.07;6.38;;;24.80;99.30;;;;;;5052880;28;20496;-73
2021/07/09 12:20:40;;;;;;;12.38;6.55;;;24.90;99.90;;;;;;5053018;28;20064;-72
2021/07/09 12:23:18;;;;;;;11.48;6.72;;;24.60;99.90;;;;;;5053227;28;20390;-74
2021/07/09 12:25:51;;;;;;;12.88;7.05;;;24.60;99.90;;;;;;5051711;28;20112;-80
2021/07/09 12:28:26;;;;;;;13.32;8.27;;;24.50;99.90;;;;;;5051903;28;20033;-70
2021/07/09 12:30:55;;;;;;;16.40;9.80;;;24.20;99.90;;;;;;5053152;28;20112;-76
2021/07/09 12:33:28;;;;;;;13.65;9.77;;;23.70;99.90;;;;;;5052922;28;20064;-70
2021/07/09 12:35:58;;;;;;;17.73;11.00;;;22.90;99.90;;;;;;5052704;28;20078;-70
2021/07/09 12:38:24;;;;;;;;;;;22.50;99.90;;;;;;5053323;28;20040;-69
2021/07/09 12:40:52;;;;;;;17.45;11.30;;;22.30;99.90;;;;;;5032873;28;19920;-70
2021/07/09 12:43:26;;;;;;;19.38;10.93;;;21.90;99.90;;;;;;5032775;28;20041;-69
2021/07/09 12:46:05;;;;;;;18.83;12.15;;;21.80;99.90;;;;;;5043500;28;20025;-68
2021/07/09 12:48:46;;;;;;;15.00;10.45;;;21.40;99.90;;;;;;5051167;28;20032;-69
2021/07/09 12:51:41;;;;;;;15.95;9.88;;;21.20;99.90;;;;;;5052685;28;20075;-69